KUOX/UOX METAR and TAF weather

Enter ICAO airport designator
Station Type Date Time Source
KUOX METAR 2020/03/28 08:55 UTC NOAA

KUOX 280855Z AUTO VRB07G13KT 140V210 10SM CLR 21/18 A2985 RMK AO2


Station Type Date Time Source
KUOX Decoded METAR 2020/03/28 08:55 UTC NOAA

Oxford, University-Oxford Airport, MS, United States (KUOX) 34-23-04N 089-32-08W
Mar 28, 2020 - 04:55 AM EDT / 2020.03.28 0855 UTC
Wind: Variable at 8 MPH (7 KT) gusting to 15 MPH (13 KT) (direction variable):0
Visibility: 10 mile(s):0
Sky conditions: clear
Temperature: 69 F (21 C)
Dew Point: 64 F (18 C)
Relative Humidity: 82%
Pressure (altimeter): 29.85 in. Hg (1010 hPa)
ob: KUOX 280855Z AUTO VRB07G13KT 140V210 10SM CLR 21/18 A2985 RMK AO2
cycle: 9

Station Type Date Time Source
KUOX TAF UTC NOAA

Error!

Example: see airport list